createdAt,value
2018-11-23T00:00:25.508Z,44.43
2018-11-23T00:02:55.003Z,47.27
2018-11-23T00:05:23.867Z,56.83
2018-11-23T00:07:53.354Z,51.57
2018-11-23T00:10:23.483Z,50.53
2018-11-23T00:12:52.483Z,51.00
2018-11-23T00:15:22.474Z,48.73
2018-11-23T00:17:51.295Z,46.40
2018-11-23T00:20:22.559Z,43.43
2018-11-23T00:22:51.424Z,51.30
2018-11-23T00:25:21.534Z,48.93
2018-11-23T00:27:50.732Z,49.10
2018-11-23T00:30:21.306Z,55.57
2018-11-23T00:32:50.653Z,46.73
2018-11-23T00:35:22.143Z,44.70
2018-11-23T00:37:51.699Z,53.67
2018-11-23T00:40:23.096Z,49.23
2018-11-23T00:42:52.348Z,47.33
2018-11-23T00:45:21.351Z,49.87
2018-11-23T00:47:50.867Z,51.23
2018-11-23T00:50:20.970Z,51.13
2018-11-23T00:52:50.381Z,47.87
2018-11-23T00:55:20.283Z,54.07
2018-11-23T00:57:49.203Z,53.10
2018-11-23T01:00:23.153Z,50.50
2018-11-23T01:02:52.551Z,43.97
2018-11-23T01:05:21.487Z,59.23
2018-11-23T01:07:50.410Z,49.43
2018-11-23T01:10:20.391Z,55.90
2018-11-23T01:12:50.290Z,59.07
2018-11-23T01:15:19.220Z,55.43
2018-11-23T01:17:48.086Z,60.17
2018-11-23T01:20:20.661Z,52.20
2018-11-23T01:22:49.983Z,64.83
2018-11-23T01:25:19.999Z,60.13
2018-11-23T01:27:50.077Z,59.83
2018-11-23T01:30:21.263Z,64.33
2018-11-23T01:32:50.147Z,59.00
2018-11-23T01:35:19.057Z,66.10
2018-11-23T01:37:47.911Z,63.37
2018-11-23T01:40:18.012Z,61.57
2018-11-23T01:42:47.324Z,59.27
2018-11-23T01:45:16.525Z,68.80
2018-11-23T01:47:45.463Z,64.53
2018-11-23T01:50:16.945Z,71.10
2018-11-23T01:52:46.975Z,57.40
2018-11-23T01:55:16.871Z,66.30
2018-11-23T01:57:46.009Z,67.97
2018-11-23T02:00:18.730Z,74.90
2018-11-23T02:02:48.272Z,82.50
2018-11-23T02:05:17.168Z,73.13
2018-11-23T02:07:46.143Z,73.93
2018-11-23T02:10:16.181Z,74.90
2018-11-23T02:12:45.093Z,78.30
2018-11-23T02:15:16.336Z,71.10
2018-11-23T02:17:45.527Z,78.97
2018-11-23T02:20:15.520Z,72.20
2018-11-23T02:22:44.416Z,89.03
2018-11-23T02:25:13.327Z,71.80
2018-11-23T02:27:42.183Z,95.07
2018-11-23T02:30:16.123Z,78.20
2018-11-23T02:32:45.175Z,104.70
2018-11-23T02:35:14.783Z,75.20
2018-11-23T02:37:43.714Z,78.77
2018-11-23T02:40:13.819Z,94.30
2018-11-23T02:42:42.749Z,96.60
2018-11-23T02:45:14.604Z,81.57
2018-11-23T02:47:44.149Z,86.67
2018-11-23T02:50:13.158Z,89.67
2018-11-23T02:52:42.647Z,86.97
2018-11-23T02:55:12.764Z,86.43
2018-11-23T02:57:41.897Z,97.40
2018-11-23T03:00:13.824Z,87.33
2018-11-23T03:02:42.919Z,93.83
2018-11-23T03:05:14.313Z,82.80
2018-11-23T03:07:43.483Z,93.03
2018-11-23T03:10:13.375Z,91.40
2018-11-23T03:12:42.899Z,90.27
2018-11-23T03:15:14.420Z,96.00
2018-11-23T03:17:43.939Z,97.40
2018-11-23T03:20:15.111Z,95.20
2018-11-23T03:22:44.148Z,95.57
2018-11-23T03:25:13.563Z,99.20
2018-11-23T03:27:42.495Z,89.97
2018-11-23T03:30:16.817Z,94.80
2018-11-23T03:32:46.896Z,100.03
2018-11-23T03:35:16.048Z,90.20
2018-11-23T03:37:45.388Z,92.00
2018-11-23T03:40:14.355Z,98.73
2018-11-23T03:42:43.203Z,97.30
2018-11-23T03:45:13.187Z,93.17
2018-11-23T03:47:42.496Z,92.00
2018-11-23T03:50:12.600Z,94.27
2018-11-23T03:52:41.812Z,96.00
2018-11-23T03:55:10.616Z,98.97
2018-11-23T03:57:39.500Z,96.03
2018-11-23T04:00:17.465Z,96.07
2018-11-23T04:02:42.359Z,91.60
2018-11-23T04:05:11.187Z,99.70
2018-11-23T04:07:40.005Z,95.23
2018-11-23T04:10:10.635Z,99.90
2018-11-23T04:12:39.483Z,101.10
2018-11-23T04:15:08.847Z,91.17
2018-11-23T04:17:37.720Z,92.90
2018-11-23T04:20:09.143Z,96.83
2018-11-23T04:22:38.020Z,97.40
2018-11-23T04:25:06.959Z,102.97
2018-11-23T04:27:35.840Z,105.30
2018-11-23T04:30:06.011Z,102.80
2018-11-23T04:32:34.858Z,97.20
2018-11-23T04:35:03.664Z,90.30
2018-11-23T04:37:32.487Z,106.57
2018-11-23T04:40:01.404Z,105.67
2018-11-23T04:42:30.212Z,96.60
2018-11-23T04:44:59.103Z,98.77
2018-11-23T04:47:27.942Z,98.40
2018-11-23T04:49:56.819Z,93.87
2018-11-23T04:52:25.760Z,102.17
2018-11-23T04:54:54.619Z,99.63
2018-11-23T04:57:23.507Z,110.13
2018-11-23T04:59:52.404Z,98.73
2018-11-23T05:02:21.262Z,100.57
2018-11-23T05:04:50.355Z,97.43
2018-11-23T05:07:19.657Z,102.63
2018-11-23T05:09:48.583Z,105.00
2018-11-23T05:12:17.484Z,97.50
2018-11-23T05:14:46.332Z,93.10
2018-11-23T05:17:15.235Z,91.00
2018-11-23T05:19:44.127Z,107.60
2018-11-23T05:22:13.095Z,107.63
2018-11-23T05:24:42.031Z,92.80
2018-11-23T05:27:10.911Z,98.50
2018-11-23T05:29:39.860Z,97.00
2018-11-23T05:32:08.776Z,92.70
2018-11-23T05:34:37.670Z,99.87
2018-11-23T05:37:06.600Z,99.37
2018-11-23T05:39:35.478Z,102.03
2018-11-23T05:42:04.333Z,99.03
2018-11-23T05:44:33.299Z,91.83
2018-11-23T05:47:02.233Z,103.40
2018-11-23T05:49:31.104Z,99.67
2018-11-23T05:52:00.039Z,103.33
2018-11-23T05:54:29.019Z,108.70
2018-11-23T05:56:57.972Z,99.33
2018-11-23T05:59:26.942Z,100.70
2018-11-23T06:01:55.746Z,95.00
2018-11-23T06:04:24.695Z,96.30
2018-11-23T06:06:53.720Z,100.53
2018-11-23T06:09:22.691Z,103.63
2018-11-23T06:11:51.555Z,96.83
2018-11-23T06:14:20.427Z,101.70
2018-11-23T06:16:49.316Z,113.67
2018-11-23T06:19:18.254Z,100.33
2018-11-23T06:21:47.139Z,105.60
2018-11-23T06:24:16.080Z,109.33
2018-11-23T06:26:44.947Z,99.23
2018-11-23T06:29:13.880Z,98.60
2018-11-23T06:31:42.743Z,99.60
2018-11-23T06:34:11.579Z,108.03
2018-11-23T06:36:40.423Z,102.20
2018-11-23T06:39:10.103Z,93.47
2018-11-23T06:41:39.050Z,91.70
2018-11-23T06:44:07.924Z,98.40
2018-11-23T06:46:37.715Z,96.37
2018-11-23T06:49:06.615Z,102.60
2018-11-23T06:51:35.507Z,109.90
2018-11-23T06:54:04.391Z,110.00
2018-11-23T06:56:33.331Z,117.90
2018-11-23T06:59:02.160Z,121.10
2018-11-23T07:01:31.048Z,106.57
2018-11-23T07:03:59.964Z,110.77
2018-11-23T07:06:28.858Z,92.47
2018-11-23T07:08:57.740Z,100.47
2018-11-23T07:11:26.920Z,107.20
2018-11-23T07:13:55.816Z,110.17
2018-11-23T07:16:24.694Z,102.60
2018-11-23T07:18:53.595Z,110.97
2018-11-23T07:21:22.508Z,103.43
2018-11-23T07:23:51.400Z,108.10
2018-11-23T07:26:20.268Z,105.93
2018-11-23T07:28:49.152Z,98.03
2018-11-23T07:31:18.036Z,107.03
2018-11-23T07:40:58.752Z,108.10
2018-11-23T07:43:27.669Z,96.33
2018-11-23T07:45:56.533Z,104.90
2018-11-23T07:48:25.423Z,112.53
2018-11-23T07:50:54.263Z,105.23
2018-11-23T07:53:23.099Z,99.87
2018-11-23T07:55:52.031Z,97.27
2018-11-23T07:58:20.888Z,104.33
2018-11-23T08:00:49.780Z,102.80
2018-11-23T08:03:18.672Z,109.63
2018-11-23T08:05:47.609Z,111.23
2018-11-23T08:08:16.509Z,109.03
2018-11-23T08:10:44.621Z,91.03
2018-11-23T08:13:13.627Z,90.20
2018-11-23T08:15:42.579Z,98.00
2018-11-23T08:18:11.480Z,91.20
2018-11-23T08:20:40.391Z,99.83
2018-11-23T08:23:09.232Z,98.53
2018-11-23T08:25:38.176Z,104.23
2018-11-23T08:28:07.060Z,97.90
2018-11-23T08:30:35.937Z,99.63
2018-11-23T08:33:05.156Z,96.70
2018-11-23T08:35:34.115Z,96.87
2018-11-23T08:38:03.056Z,106.73
2018-11-23T08:40:31.917Z,102.90
2018-11-23T08:43:00.863Z,95.10
2018-11-23T08:45:29.795Z,100.83
2018-11-23T08:47:58.698Z,113.43
2018-11-23T08:50:28.981Z,105.10
2018-11-23T08:52:57.919Z,106.47
2018-11-23T08:55:27.176Z,96.90
2018-11-23T08:57:56.081Z,92.30
2018-11-23T09:00:26.388Z,93.80
2018-11-23T09:02:56.938Z,83.73
2018-11-23T09:05:26.000Z,98.40
2018-11-23T09:07:55.712Z,94.00
2018-11-23T09:10:26.924Z,79.77
2018-11-23T09:12:58.212Z,88.53
2018-11-23T09:15:27.118Z,85.53
2018-11-23T09:17:55.959Z,85.63
2018-11-23T09:20:24.875Z,85.63
2018-11-23T09:22:53.699Z,87.27
2018-11-23T09:25:23.275Z,79.03
2018-11-23T09:27:52.342Z,86.70
2018-11-23T09:30:22.728Z,89.30
2018-11-23T09:32:52.505Z,80.93
2018-11-23T09:35:21.410Z,80.47
2018-11-23T09:37:50.799Z,80.50
2018-11-23T09:40:22.881Z,74.77
2018-11-23T09:42:52.268Z,76.07
2018-11-23T09:45:23.492Z,80.87
2018-11-23T09:47:54.047Z,79.90
2018-11-23T09:50:23.930Z,72.13
2018-11-23T09:52:53.858Z,84.57
2018-11-23T09:55:24.048Z,74.90
2018-11-23T09:57:52.427Z,83.53
2018-11-23T10:00:22.675Z,64.67
2018-11-23T10:02:52.699Z,77.03
2018-11-23T10:05:21.997Z,64.63
2018-11-23T10:07:52.430Z,71.63
2018-11-23T10:10:21.975Z,69.27
2018-11-23T10:12:50.836Z,63.07
2018-11-23T10:15:20.424Z,73.40
2018-11-23T10:17:49.630Z,64.10
2018-11-23T10:20:19.999Z,67.70
2018-11-23T10:22:49.134Z,65.47
2018-11-23T10:25:20.487Z,56.23
2018-11-23T10:27:49.475Z,72.13
2018-11-23T10:30:20.735Z,58.23
2018-11-23T10:32:50.740Z,57.50
2018-11-23T10:35:19.620Z,57.60
2018-11-23T10:37:49.971Z,60.63
2018-11-23T10:40:20.308Z,53.00
2018-11-23T10:42:49.254Z,63.47
2018-11-23T10:45:20.772Z,56.77
2018-11-23T10:47:50.252Z,62.50
2018-11-23T10:50:20.532Z,58.33
2018-11-23T10:52:49.569Z,60.90
2018-11-23T10:55:20.711Z,56.50
2018-11-23T10:57:49.719Z,61.13
2018-11-23T11:00:24.488Z,61.17
2018-11-23T11:03:00.260Z,58.10
2018-11-23T11:05:30.784Z,55.77
2018-11-23T11:08:01.188Z,58.03
2018-11-23T11:10:30.426Z,59.83
2018-11-23T11:12:59.286Z,57.23
2018-11-23T11:15:28.210Z,57.87
2018-11-23T11:17:57.071Z,58.23
2018-11-23T11:20:26.003Z,57.77
2018-11-23T11:22:54.969Z,60.17
2018-11-23T11:25:23.880Z,60.03
2018-11-23T11:27:52.757Z,58.50
2018-11-23T11:30:21.719Z,64.63
2018-11-23T11:32:51.023Z,61.73
2018-11-23T11:35:19.922Z,70.40
2018-11-23T11:37:48.831Z,63.90
2018-11-23T11:40:18.823Z,74.63
2018-11-23T11:42:47.777Z,65.30
2018-11-23T11:45:18.044Z,73.43
2018-11-23T11:47:47.544Z,67.43
2018-11-23T11:50:16.632Z,73.90
2018-11-23T11:52:46.951Z,79.40
2018-11-23T11:55:17.175Z,76.33
2018-11-23T11:57:46.783Z,73.20
2018-11-23T12:00:17.491Z,68.47
2018-11-23T12:02:46.726Z,78.47
2018-11-23T12:05:15.605Z,75.50
2018-11-23T12:07:44.590Z,73.50
2018-11-23T12:10:20.359Z,71.90
2018-11-23T12:12:49.231Z,78.83
2018-11-23T12:15:18.208Z,88.13
2018-11-23T12:17:47.137Z,69.20
2018-11-23T12:20:17.466Z,71.50
2018-11-23T12:22:46.623Z,95.97
2018-11-23T12:25:15.797Z,79.83
2018-11-23T12:27:44.649Z,82.83
2018-11-23T12:30:15.964Z,96.53
2018-11-23T12:32:45.770Z,92.23
2018-11-23T12:35:15.754Z,93.53
2018-11-23T12:37:44.639Z,85.77
2018-11-23T12:40:14.706Z,95.57
2018-11-23T12:42:44.132Z,96.07
2018-11-23T12:45:14.572Z,87.77
2018-11-23T12:47:43.510Z,88.43
2018-11-23T12:50:15.000Z,85.40
2018-11-23T12:52:43.905Z,94.87
2018-11-23T12:55:13.302Z,96.33
2018-11-23T12:57:42.523Z,104.93
2018-11-23T13:00:20.807Z,102.33
2018-11-23T13:02:53.950Z,96.00
2018-11-23T13:05:23.824Z,102.40
2018-11-23T13:07:53.583Z,99.07
2018-11-23T13:10:23.487Z,103.30
2018-11-23T13:12:52.811Z,110.23
2018-11-23T13:15:21.756Z,116.00
2018-11-23T13:17:50.639Z,105.10
2018-11-23T13:20:19.541Z,116.40
2018-11-23T13:22:48.548Z,109.10
2018-11-23T13:25:19.079Z,118.90
2018-11-23T13:27:47.933Z,112.03
2018-11-23T13:30:19.825Z,118.77
2018-11-23T13:32:48.872Z,107.33
2018-11-23T13:35:18.435Z,109.47
2018-11-23T13:37:47.367Z,128.23
2018-11-23T13:40:17.450Z,107.00
2018-11-23T13:42:46.832Z,115.27
2018-11-23T13:45:18.191Z,124.70
2018-11-23T13:47:47.008Z,128.27
2018-11-23T13:50:18.145Z,126.70
2018-11-23T13:52:47.944Z,117.83
2018-11-23T13:55:16.792Z,134.03
2018-11-23T13:57:45.635Z,129.50
2018-11-23T14:00:20.643Z,128.90
2018-11-23T14:02:49.571Z,141.90
2018-11-23T14:05:19.831Z,128.43
2018-11-23T14:07:50.188Z,125.33
2018-11-23T14:10:20.647Z,122.27
2018-11-23T14:12:49.548Z,134.43
2018-11-23T14:15:20.830Z,131.23
2018-11-23T14:17:50.575Z,133.37
2018-11-23T14:20:20.103Z,127.87
2018-11-23T14:22:49.027Z,128.77
2018-11-23T14:25:19.382Z,140.73
2018-11-23T14:27:48.819Z,127.47
2018-11-23T14:30:21.193Z,147.80
2018-11-23T14:32:50.227Z,123.47
2018-11-23T14:35:20.546Z,127.40
2018-11-23T14:37:50.150Z,130.63
2018-11-23T14:40:19.074Z,117.57
2018-11-23T14:42:48.820Z,125.70
2018-11-23T14:45:22.649Z,138.40
2018-11-23T14:47:52.302Z,146.20
2018-11-23T14:50:23.443Z,126.10
2018-11-23T14:52:53.304Z,131.70
2018-11-23T14:55:22.489Z,127.97
2018-11-23T14:57:51.311Z,159.20
2018-11-23T15:00:23.200Z,141.20
2018-11-23T15:02:53.327Z,149.07
2018-11-23T15:05:22.230Z,145.87
2018-11-23T15:07:51.117Z,132.87
2018-11-23T15:10:22.333Z,121.37
2018-11-23T15:12:52.447Z,130.20
2018-11-23T15:15:22.664Z,143.60
2018-11-23T15:17:52.172Z,120.27
2018-11-23T15:20:23.324Z,155.50
2018-11-23T15:23:01.523Z,134.83
2018-11-23T15:25:30.388Z,121.20
2018-11-23T15:27:59.235Z,151.47
2018-11-23T15:30:29.503Z,136.57
2018-11-23T15:32:58.515Z,133.03
2018-11-23T15:35:28.899Z,137.17
2018-11-23T15:37:57.734Z,155.43
2018-11-23T15:40:27.747Z,132.57
2018-11-23T15:42:58.372Z,129.23
2018-11-23T15:45:28.275Z,124.53
2018-11-23T15:47:57.683Z,140.03
2018-11-23T15:50:28.204Z,147.63
2018-11-23T15:52:57.133Z,142.80
2018-11-23T15:55:28.669Z,165.80
2018-11-23T15:58:00.012Z,128.93
2018-11-23T16:00:33.186Z,124.60
2018-11-23T16:03:02.152Z,141.27
2018-11-23T16:05:31.063Z,133.93
2018-11-23T16:08:03.219Z,146.40
2018-11-23T16:10:34.396Z,125.33
2018-11-23T16:13:10.788Z,148.87
2018-11-23T16:15:33.402Z,142.67
2018-11-23T16:18:02.787Z,147.90
2018-11-23T16:20:34.796Z,123.87
2018-11-23T16:23:04.987Z,128.17
2018-11-23T16:25:34.128Z,136.87
2018-11-23T16:28:04.306Z,129.67
2018-11-23T16:30:34.607Z,125.10
2018-11-23T16:33:04.600Z,131.77
2018-11-23T16:35:34.757Z,119.70
2018-11-23T16:38:05.081Z,127.80
2018-11-23T16:40:35.134Z,134.67
2018-11-23T16:43:04.330Z,115.50
2018-11-23T16:45:34.391Z,124.60
2018-11-23T16:48:04.470Z,145.10
2018-11-23T16:50:33.383Z,119.87
2018-11-23T16:53:02.577Z,129.97
2018-11-23T16:55:31.528Z,122.60
2018-11-23T16:58:01.653Z,137.57
2018-11-23T17:00:31.704Z,137.17
2018-11-23T17:03:01.919Z,127.70
2018-11-23T17:05:37.297Z,123.57
2018-11-23T17:08:07.545Z,124.43
2018-11-23T17:10:36.614Z,111.23
2018-11-23T17:13:05.567Z,126.70
2018-11-23T17:15:34.434Z,118.13
2018-11-23T17:18:03.307Z,131.47
2018-11-23T17:20:33.324Z,124.93
2018-11-23T17:23:03.203Z,125.97
2018-11-23T17:25:32.520Z,139.30
2018-11-23T17:28:02.931Z,140.13
2018-11-23T17:30:32.766Z,131.37
2018-11-23T17:33:01.682Z,144.63
2018-11-23T17:35:30.769Z,125.20
2018-11-23T17:37:59.828Z,146.87
2018-11-23T17:40:31.392Z,144.60
2018-11-23T17:43:00.382Z,143.20
2018-11-23T17:45:31.306Z,144.43
2018-11-23T17:48:00.626Z,140.30
2018-11-23T17:50:31.007Z,142.17
2018-11-23T17:53:00.241Z,141.23
2018-11-23T17:55:29.352Z,136.43
2018-11-23T17:57:59.056Z,163.20
2018-11-23T18:00:29.165Z,168.47
2018-11-23T18:02:58.867Z,140.70
2018-11-23T18:05:28.473Z,127.67
2018-11-23T18:07:57.811Z,143.37
2018-11-23T18:10:28.123Z,132.27
2018-11-23T18:12:57.636Z,146.73
2018-11-23T18:15:27.807Z,132.53
2018-11-23T18:17:57.747Z,149.43
2018-11-23T18:20:27.868Z,146.40
2018-11-23T18:22:57.572Z,125.37
2018-11-23T18:25:30.055Z,128.33
2018-11-23T18:28:02.215Z,132.90
2018-11-23T18:30:32.653Z,123.53
2018-11-23T18:33:04.645Z,130.33
2018-11-23T18:35:33.592Z,143.77
2018-11-23T18:38:02.525Z,128.67
2018-11-23T18:40:37.127Z,117.10
2018-11-23T18:43:00.428Z,132.37
2018-11-23T18:45:29.412Z,130.40
2018-11-23T18:47:58.268Z,133.00
2018-11-23T18:50:27.187Z,123.70
2018-11-23T18:52:56.063Z,128.30
2018-11-23T18:55:24.928Z,116.93
2018-11-23T18:57:53.792Z,119.50
2018-11-23T19:00:22.691Z,125.10
2018-11-23T19:02:51.548Z,108.63
2018-11-23T19:05:22.571Z,129.03
2018-11-23T19:07:51.461Z,115.77
2018-11-23T19:10:20.365Z,117.03
2018-11-23T19:12:49.235Z,113.77
2018-11-23T19:15:25.096Z,115.63
2018-11-23T19:17:48.047Z,124.20
2018-11-23T19:20:18.392Z,127.53
2018-11-23T19:22:49.868Z,128.77
2018-11-23T19:25:18.764Z,115.30
2018-11-23T19:27:47.611Z,126.63
2018-11-23T19:30:18.104Z,115.50
2018-11-23T19:32:47.031Z,118.90
2018-11-23T19:35:15.923Z,113.90
2018-11-23T19:37:44.801Z,128.50
2018-11-23T19:40:15.272Z,106.43
2018-11-23T19:42:44.948Z,108.73
2018-11-23T19:45:16.632Z,114.00
2018-11-23T19:47:45.616Z,112.90
2018-11-23T19:50:17.667Z,108.67
2018-11-23T19:52:46.739Z,119.77
2018-11-23T19:55:16.852Z,111.70
2018-11-23T19:57:45.791Z,142.83
2018-11-23T20:00:20.273Z,170.07
2018-11-23T20:02:49.131Z,188.77
2018-11-23T20:05:18.080Z,166.13
2018-11-23T20:07:48.544Z,133.30
2018-11-23T20:10:19.499Z,128.03
2018-11-23T20:12:50.113Z,127.07
2018-11-23T20:15:19.612Z,126.63
2018-11-23T20:17:48.751Z,118.53
2018-11-23T20:20:18.113Z,126.73
2018-11-23T20:22:48.375Z,107.67
2018-11-23T20:25:18.680Z,121.10
2018-11-23T20:27:48.835Z,117.67
2018-11-23T20:30:18.732Z,106.40
2018-11-23T20:32:47.712Z,117.93
2018-11-23T20:35:19.335Z,119.27
2018-11-23T20:37:48.317Z,97.77
2018-11-23T20:40:20.533Z,116.50
2018-11-23T20:42:49.426Z,111.80
2018-11-23T20:45:18.338Z,112.33
2018-11-23T20:47:47.211Z,121.60
2018-11-23T20:50:17.229Z,125.90
2018-11-23T20:52:46.106Z,116.43
2018-11-23T20:55:17.633Z,118.70
2018-11-23T20:57:46.569Z,111.27
2018-11-23T21:00:16.867Z,122.83
2018-11-23T21:02:46.764Z,118.30
2018-11-23T21:05:17.170Z,111.30
2018-11-23T21:07:46.028Z,111.10
2018-11-23T21:10:20.369Z,119.23
2018-11-23T21:12:45.627Z,108.57
2018-11-23T21:15:22.453Z,116.03
2018-11-23T21:17:51.302Z,119.83
2018-11-23T21:20:20.212Z,123.87
2018-11-23T21:22:49.051Z,119.83
2018-11-23T21:25:17.955Z,114.83
2018-11-23T21:27:46.855Z,117.67
2018-11-23T21:30:17.424Z,127.07
2018-11-23T21:32:46.255Z,124.70
2018-11-23T21:35:15.117Z,129.70
2018-11-23T21:37:43.948Z,120.37
2018-11-23T21:40:15.360Z,128.20
2018-11-23T21:42:44.215Z,112.87
2018-11-23T21:45:15.266Z,129.30
2018-11-23T21:47:44.104Z,117.33
2018-11-23T21:50:25.140Z,120.77
2018-11-23T21:52:47.961Z,134.43
2018-11-23T21:55:22.491Z,132.63
2018-11-23T21:57:52.231Z,131.70
2018-11-23T22:00:21.057Z,124.40
2018-11-23T22:02:49.875Z,154.23
2018-11-23T22:05:18.773Z,124.37
2018-11-23T22:07:47.634Z,142.30
2018-11-23T22:10:18.925Z,145.97
2018-11-23T22:12:47.783Z,178.90
2018-11-23T22:15:20.923Z,183.50
2018-11-23T22:17:50.916Z,170.23
2018-11-23T22:20:21.214Z,176.90
2018-11-23T22:22:50.048Z,198.47
2018-11-23T22:25:20.426Z,175.57
2018-11-23T22:27:49.305Z,158.93
2018-11-23T22:30:29.152Z,173.07
2018-11-23T22:32:58.155Z,178.23
2018-11-23T22:35:28.567Z,177.40
2018-11-23T22:37:57.397Z,156.23
2018-11-23T22:40:26.231Z,145.17
2018-11-23T22:42:57.200Z,140.30
2018-11-23T22:45:26.031Z,144.30
2018-11-23T22:47:54.875Z,140.67
2018-11-23T22:50:24.476Z,138.87
2018-11-23T22:52:53.339Z,137.97
2018-11-23T22:55:22.203Z,133.63
2018-11-23T22:57:51.056Z,157.70
2018-11-23T23:00:28.119Z,143.97
2018-11-23T23:02:56.936Z,148.63
2018-11-23T23:05:25.771Z,131.27
2018-11-23T23:07:54.640Z,123.13
2018-11-23T23:10:23.463Z,125.37
2018-11-23T23:12:52.284Z,124.60
2018-11-23T23:15:21.119Z,142.33
2018-11-23T23:17:49.936Z,128.67
2018-11-23T23:20:21.334Z,132.93
2018-11-23T23:22:50.221Z,130.97
2018-11-23T23:25:19.032Z,124.20
2018-11-23T23:27:47.908Z,131.93
2018-11-23T23:30:18.121Z,117.63
2018-11-23T23:32:48.197Z,127.93
2018-11-23T23:35:17.926Z,154.73
2018-11-23T23:37:46.803Z,144.70
2018-11-23T23:40:17.055Z,143.20
2018-11-23T23:42:46.618Z,128.53
2018-11-23T23:45:17.776Z,143.73
2018-11-23T23:47:46.669Z,146.17
2018-11-23T23:50:18.017Z,143.73
2018-11-23T23:52:46.904Z,142.13
2018-11-23T23:55:15.731Z,153.27
2018-11-23T23:57:46.651Z,141.43
